Time;durP1;ratioP1;P1;durP2;ratioP2;P2;SDS_P1;SDS_P2;PMS_P1;PMS_P2;Temp;Humidity;BMP_temperature;BMP_pressure;BME280_temperature;BME280_humidity;BME280_pressure;Samples;Min_cycle;Max_cycle;Signal;HPM_P1;HPM_P2
2023/04/27 00:01:56;;;;;;;20.50;8.55;;;5.70;99.90;;;;;;5067767;28;20048;-63
2023/04/27 00:04:24;;;;;;;26.77;9.63;;;5.80;99.90;;;;;;5060739;28;20048;-60
2023/04/27 00:06:52;;;;;;;29.63;8.73;;;5.80;99.90;;;;;;5064946;28;20349;-60
2023/04/27 00:09:19;;;;;;;20.88;9.00;;;5.70;99.90;;;;;;5063789;28;20053;-61
2023/04/27 00:11:47;;;;;;;22.17;8.77;;;5.70;99.90;;;;;;5063678;28;20070;-59
2023/04/27 00:14:15;;;;;;;23.30;9.65;;;5.80;99.90;;;;;;5052913;28;20036;-60
2023/04/27 00:16:43;;;;;;;21.63;10.00;;;5.70;99.90;;;;;;5068614;28;20057;-59
2023/04/27 00:19:12;;;;;;;21.83;8.70;;;5.70;99.90;;;;;;5068241;28;20388;-59
2023/04/27 00:21:41;;;;;;;17.65;8.15;;;5.70;99.90;;;;;;5048761;28;20048;-60
2023/04/27 00:24:09;;;;;;;22.83;9.50;;;5.70;99.90;;;;;;5054928;28;20049;-59
2023/04/27 00:26:37;;;;;;;17.05;8.70;;;5.70;99.90;;;;;;5063590;28;20044;-62
2023/04/27 00:29:05;;;;;;;24.00;9.77;;;5.70;99.90;;;;;;5061986;28;20051;-59
2023/04/27 00:31:33;;;;;;;22.80;7.85;;;5.70;99.90;;;;;;5068442;28;20044;-60
2023/04/27 00:34:00;;;;;;;17.60;9.00;;;5.70;99.90;;;;;;5064636;28;20047;-61
2023/04/27 00:36:28;;;;;;;29.95;9.40;;;5.70;99.90;;;;;;5068301;28;20040;-60
2023/04/27 00:38:56;;;;;;;19.17;8.40;;;5.70;99.90;;;;;;5066956;28;20048;-59
2023/04/27 00:41:24;;;;;;;23.00;9.48;;;5.80;99.90;;;;;;5053691;28;20382;-59
2023/04/27 00:43:52;;;;;;;21.33;8.45;;;5.80;99.90;;;;;;5059955;28;20055;-60
2023/04/27 00:46:23;;;;;;;17.95;8.30;;;5.90;99.90;;;;;;5048099;28;20056;-59
2023/04/27 00:48:51;;;;;;;25.17;9.27;;;5.90;99.90;;;;;;5065361;28;20059;-60
2023/04/27 00:51:18;;;;;;;23.98;9.52;;;5.90;99.90;;;;;;5066809;28;20507;-59
2023/04/27 00:53:51;;;;;;;;;;;5.90;99.90;;;;;;5065273;28;20055;-59
2023/04/27 00:56:19;;;;;;;;;;;5.90;99.90;;;;;;5068902;28;19924;-59
2023/04/27 00:58:48;;;;;;;16.95;8.18;;;5.90;99.90;;;;;;5053556;28;19944;-59
2023/04/27 01:01:19;;;;;;;28.15;8.27;;;5.90;99.90;;;;;;5047512;28;20049;-60
2023/04/27 01:03:47;;;;;;;20.90;8.90;;;5.90;99.90;;;;;;5061471;28;20052;-59
2023/04/27 01:06:15;;;;;;;23.27;8.88;;;5.90;99.90;;;;;;5044801;28;20056;-60
2023/04/27 01:08:45;;;;;;;22.08;9.05;;;5.90;99.90;;;;;;5057289;28;20037;-61
2023/04/27 01:11:13;;;;;;;21.80;9.35;;;6.00;99.90;;;;;;5048218;28;20044;-59
2023/04/27 01:13:41;;;;;;;25.83;10.00;;;6.10;99.90;;;;;;5053742;28;20044;-63
2023/04/27 01:16:08;;;;;;;21.08;8.43;;;6.10;99.90;;;;;;5063609;28;20480;-60
2023/04/27 01:18:41;;;;;;;22.08;8.85;;;6.20;99.90;;;;;;5049693;28;20049;-60
2023/04/27 01:21:09;;;;;;;27.42;9.13;;;6.20;99.90;;;;;;5066231;28;20052;-60
2023/04/27 01:23:37;;;;;;;30.05;9.60;;;6.30;99.90;;;;;;5065092;28;20526;-60
2023/04/27 01:26:05;;;;;;;26.75;9.73;;;6.30;99.90;;;;;;5056587;28;20040;-59
2023/04/27 01:28:32;;;;;;;18.35;9.13;;;6.40;99.90;;;;;;5066229;28;20044;-59
2023/04/27 01:31:00;;;;;;;20.30;9.27;;;6.50;99.90;;;;;;5058893;28;20052;-60
2023/04/27 01:33:27;;;;;;;19.85;8.95;;;6.50;99.90;;;;;;5055140;28;20421;-62
2023/04/27 01:35:55;;;;;;;24.02;9.18;;;6.60;99.90;;;;;;5063902;28;20053;-60
2023/04/27 01:38:23;;;;;;;20.60;9.20;;;6.60;99.90;;;;;;5069707;28;20040;-60
2023/04/27 01:41:00;;;;;;;25.40;9.77;;;6.60;99.90;;;;;;5070043;28;20048;-60
2023/04/27 01:43:30;;;;;;;23.45;9.73;;;7.50;99.90;;;;;;5059584;28;20052;-61
2023/04/27 01:46:10;;;;;;;17.90;9.80;;;6.70;99.90;;;;;;5060099;28;20053;-60
2023/04/27 01:48:38;;;;;;;;;;;6.70;99.90;;;;;;5055164;28;20056;-60
2023/04/27 01:51:06;;;;;;;21.15;9.27;;;6.70;99.90;;;;;;5069326;28;20367;-61
2023/04/27 01:53:33;;;;;;;18.10;9.13;;;6.70;99.90;;;;;;5069915;28;20060;-60
2023/04/27 01:56:02;;;;;;;18.67;8.43;;;6.70;99.90;;;;;;5065691;28;20408;-59
2023/04/27 01:58:32;;;;;;;25.52;9.98;;;6.70;99.90;;;;;;5073594;28;20525;-59
2023/04/27 02:01:00;;;;;;;24.52;9.65;;;6.70;99.90;;;;;;5083885;28;20049;-59
2023/04/27 02:03:28;;;;;;;22.45;8.73;;;6.70;99.90;;;;;;5058053;28;20053;-60
2023/04/27 02:05:56;;;;;;;24.85;9.68;;;6.70;99.90;;;;;;5063907;28;20494;-59
2023/04/27 02:08:24;;;;;;;21.92;10.73;;;6.70;99.90;;;;;;5074575;28;20052;-60
2023/04/27 02:10:51;;;;;;;26.88;10.20;;;6.70;99.90;;;;;;5072669;28;20052;-60
2023/04/27 02:13:20;;;;;;;24.02;11.48;;;6.70;99.90;;;;;;5070626;28;20048;-60
2023/04/27 02:15:47;;;;;;;21.38;10.40;;;6.70;99.90;;;;;;5073020;28;20071;-59
2023/04/27 02:18:15;;;;;;;28.90;10.65;;;6.70;99.90;;;;;;5072100;28;20044;-62
2023/04/27 02:20:43;;;;;;;26.50;10.88;;;6.60;99.90;;;;;;5074406;28;20071;-60
2023/04/27 02:23:11;;;;;;;24.35;11.40;;;6.70;99.90;;;;;;5072981;28;20040;-60
2023/04/27 02:25:41;;;;;;;25.05;11.05;;;6.70;99.90;;;;;;5072840;28;20055;-61
2023/04/27 02:28:09;;;;;;;26.08;10.43;;;6.70;99.90;;;;;;5073009;28;20057;-61
2023/04/27 02:30:37;;;;;;;18.15;9.75;;;6.70;99.90;;;;;;5072398;28;20040;-59
2023/04/27 02:33:05;;;;;;;27.15;12.20;;;6.70;99.90;;;;;;5073149;28;20499;-61
2023/04/27 02:35:33;;;;;;;24.77;11.13;;;6.70;99.90;;;;;;5070511;28;20056;-59
2023/04/27 02:38:01;;;;;;;22.88;11.40;;;6.70;99.90;;;;;;5074054;28;20055;-59
2023/04/27 02:40:28;;;;;;;24.00;10.48;;;6.70;99.90;;;;;;5072648;28;20044;-59
2023/04/27 02:42:57;;;;;;;25.73;11.45;;;6.70;99.90;;;;;;5071746;28;20041;-60
2023/04/27 02:45:24;;;;;;;21.83;10.70;;;6.70;99.90;;;;;;5072644;28;20059;-59
2023/04/27 02:47:52;;;;;;;19.83;10.85;;;6.70;99.90;;;;;;5072804;28;20601;-59
2023/04/27 02:50:20;;;;;;;29.98;11.73;;;6.70;99.90;;;;;;5070137;28;20489;-59
2023/04/27 02:52:47;;;;;;;27.92;11.07;;;6.70;99.90;;;;;;5052957;28;20041;-59
2023/04/27 02:55:16;;;;;;;27.67;12.07;;;6.80;99.90;;;;;;5052753;28;20052;-61
2023/04/27 02:57:44;;;;;;;26.30;11.75;;;6.80;99.90;;;;;;5024389;28;20503;-60
2023/04/27 03:00:12;;;;;;;19.13;9.80;;;6.90;99.90;;;;;;5033916;28;20041;-60
2023/04/27 03:02:39;;;;;;;23.90;11.02;;;6.80;99.90;;;;;;5040379;28;20056;-58
2023/04/27 03:05:07;;;;;;;22.60;11.32;;;6.90;99.90;;;;;;5020491;28;20042;-60
2023/04/27 03:07:35;;;;;;;30.75;11.70;;;6.90;99.90;;;;;;5033646;28;20049;-59
2023/04/27 03:10:03;;;;;;;23.95;11.27;;;6.90;99.90;;;;;;5015855;28;20057;-58
2023/04/27 03:12:31;;;;;;;25.85;11.30;;;7.00;99.90;;;;;;5042793;28;20518;-58
2023/04/27 03:14:59;;;;;;;27.58;11.35;;;6.90;99.90;;;;;;5035481;28;20060;-58
2023/04/27 03:17:27;;;;;;;26.77;10.00;;;7.00;99.90;;;;;;5023142;28;20045;-60
2023/04/27 03:19:55;;;;;;;22.75;10.05;;;7.00;99.90;;;;;;5029531;28;20513;-58
2023/04/27 03:22:23;;;;;;;22.70;10.43;;;7.00;99.90;;;;;;5053354;28;20053;-59
2023/04/27 03:24:51;;;;;;;23.58;10.95;;;7.00;99.90;;;;;;5035212;28;20064;-58
2023/04/27 03:27:18;;;;;;;25.48;10.55;;;7.00;99.90;;;;;;5034232;28;20041;-58
2023/04/27 03:29:46;;;;;;;20.65;10.57;;;7.10;99.90;;;;;;5051477;28;20060;-59
2023/04/27 03:32:14;;;;;;;22.50;10.10;;;7.10;99.90;;;;;;5052940;28;20052;-59
2023/04/27 03:34:41;;;;;;;25.80;11.15;;;7.10;99.90;;;;;;5053074;28;20048;-59
2023/04/27 03:37:09;;;;;;;24.52;10.40;;;7.10;99.90;;;;;;5034368;28;20056;-59
2023/04/27 03:39:37;;;;;;;20.67;10.27;;;7.10;99.90;;;;;;5050581;28;20060;-59
2023/04/27 03:42:05;;;;;;;26.60;11.38;;;7.10;99.90;;;;;;5019574;28;20041;-59
2023/04/27 03:44:33;;;;;;;21.65;10.55;;;7.10;99.90;;;;;;5035019;28;20041;-59
2023/04/27 03:47:01;;;;;;;30.45;11.00;;;7.10;99.90;;;;;;5035056;28;20044;-59
2023/04/27 03:49:29;;;;;;;22.75;10.35;;;7.10;99.90;;;;;;5048942;28;20059;-58
2023/04/27 03:51:57;;;;;;;19.45;10.32;;;7.10;99.90;;;;;;5049333;28;20049;-58
2023/04/27 03:54:24;;;;;;;31.30;11.35;;;7.20;99.90;;;;;;5033801;28;20485;-59
2023/04/27 03:56:52;;;;;;;24.30;10.18;;;7.10;99.90;;;;;;5071619;28;20484;-59
2023/04/27 03:59:20;;;;;;;22.52;10.48;;;7.10;99.90;;;;;;5070388;28;20051;-60
2023/04/27 04:01:49;;;;;;;23.13;11.45;;;7.10;99.90;;;;;;5052877;28;20531;-60
2023/04/27 04:04:17;;;;;;;19.65;10.65;;;7.10;99.90;;;;;;5055058;28;20518;-58
2023/04/27 04:06:45;;;;;;;28.02;10.88;;;;;;;;;;5061232;28;20503;-59
2023/04/27 04:09:14;;;;;;;25.08;10.95;;;7.10;99.90;;;;;;5067870;28;20044;-58
2023/04/27 04:11:43;;;;;;;25.52;10.88;;;7.10;99.90;;;;;;5071141;28;20403;-59
2023/04/27 04:14:13;;;;;;;19.77;10.38;;;7.10;99.90;;;;;;5053829;28;20044;-58
2023/04/27 04:16:41;;;;;;;28.08;11.68;;;7.10;99.90;;;;;;5072197;28;20053;-59
2023/04/27 04:19:08;;;;;;;28.88;11.50;;;7.00;99.90;;;;;;5068814;28;20048;-59
2023/04/27 04:21:36;;;;;;;26.95;11.85;;;7.10;99.90;;;;;;5069042;28;20044;-61
2023/04/27 04:24:04;;;;;;;22.35;10.27;;;7.10;99.90;;;;;;5069469;28;20040;-60
2023/04/27 04:26:33;;;;;;;20.90;10.52;;;7.10;99.90;;;;;;5070144;28;20044;-59
2023/04/27 04:29:01;;;;;;;29.27;11.68;;;;;;;;;;5070774;28;20052;-59
2023/04/27 04:31:28;;;;;;;26.92;11.45;;;7.00;99.90;;;;;;5069124;28;20059;-59
2023/04/27 04:33:56;;;;;;;20.35;10.55;;;7.00;99.90;;;;;;5068412;28;20044;-60
2023/04/27 04:36:24;;;;;;;26.05;11.23;;;7.00;99.90;;;;;;5070010;28;20041;-59
2023/04/27 04:38:55;;;;;;;29.80;11.55;;;7.00;99.90;;;;;;5070361;28;20052;-58
2023/04/27 04:41:25;;;;;;;24.45;10.38;;;7.00;99.90;;;;;;5069259;28;20403;-61
2023/04/27 04:43:53;;;;;;;21.95;11.98;;;6.90;99.90;;;;;;5069920;28;20044;-60
2023/04/27 04:46:21;;;;;;;23.98;10.75;;;6.90;99.90;;;;;;5070431;28;20044;-59
2023/04/27 04:48:50;;;;;;;25.13;11.40;;;6.90;99.90;;;;;;5061268;28;20048;-61
2023/04/27 04:51:21;;;;;;;29.75;11.65;;;6.90;99.90;;;;;;5063397;28;20057;-60
2023/04/27 04:53:49;;;;;;;28.10;11.70;;;6.90;99.90;;;;;;5057580;28;20044;-60
2023/04/27 04:56:17;;;;;;;28.77;12.50;;;6.80;99.90;;;;;;5064778;28;20384;-59
2023/04/27 04:58:45;;;;;;;25.80;11.55;;;6.80;99.90;;;;;;5048277;28;20602;-63
2023/04/27 05:01:12;;;;;;;28.20;11.30;;;6.80;99.90;;;;;;5067294;28;20501;-60
2023/04/27 05:03:42;;;;;;;26.23;12.15;;;;;;;;;;5053680;28;20539;-60
2023/04/27 05:06:10;;;;;;;20.90;11.43;;;6.70;99.90;;;;;;5064093;28;20049;-60
2023/04/27 05:08:37;;;;;;;29.70;12.07;;;6.60;99.90;;;;;;5051933;28;20488;-59
2023/04/27 05:11:05;;;;;;;27.75;12.40;;;6.60;99.90;;;;;;5061252;28;20060;-59
2023/04/27 05:13:34;;;;;;;24.08;11.82;;;6.50;99.90;;;;;;5058837;28;20055;-59
2023/04/27 05:16:06;;;;;;;28.73;12.07;;;6.60;99.90;;;;;;5045057;28;20053;-59
2023/04/27 05:18:35;;;;;;;30.35;12.07;;;6.60;99.90;;;;;;5046882;28;20049;-60
2023/04/27 05:21:03;;;;;;;27.63;11.77;;;6.50;99.90;;;;;;5061695;28;20049;-60
2023/04/27 05:23:30;;;;;;;32.45;11.93;;;6.50;99.90;;;;;;5052725;28;20060;-62
2023/04/27 05:25:58;;;;;;;29.10;11.95;;;6.50;99.90;;;;;;5067505;28;20056;-61
2023/04/27 05:28:26;;;;;;;28.48;12.00;;;6.50;99.90;;;;;;5055724;28;20057;-61
2023/04/27 05:30:53;;;;;;;31.83;14.00;;;6.50;99.90;;;;;;5060651;28;20047;-61
2023/04/27 05:33:21;;;;;;;25.15;12.13;;;6.50;99.90;;;;;;5060436;28;20041;-60
2023/04/27 05:35:53;;;;;;;23.40;12.10;;;6.40;99.90;;;;;;5070030;28;20045;-61
2023/04/27 05:38:20;;;;;;;30.75;13.30;;;6.50;99.90;;;;;;5056517;28;20049;-61
2023/04/27 05:40:57;;;;;;;27.02;12.40;;;6.50;99.90;;;;;;5055524;28;20525;-60
2023/04/27 05:43:25;;;;;;;28.13;12.32;;;6.50;99.90;;;;;;5064023;28;20487;-60
2023/04/27 05:45:53;;;;;;;30.77;11.65;;;6.50;99.90;;;;;;5058260;28;20045;-60
2023/04/27 05:48:20;;;;;;;24.90;12.55;;;6.50;99.90;;;;;;5060242;28;20041;-60
2023/04/27 05:50:48;;;;;;;27.48;12.15;;;6.50;99.90;;;;;;5052980;28;20064;-60
2023/04/27 05:53:16;;;;;;;28.98;11.75;;;6.50;99.90;;;;;;5025883;28;20404;-59
2023/04/27 05:55:43;;;;;;;27.13;11.82;;;6.50;99.90;;;;;;5040700;28;20048;-59
2023/04/27 05:58:12;;;;;;;26.63;13.20;;;6.60;99.90;;;;;;5039181;28;20057;-58
2023/04/27 06:00:40;;;;;;;30.13;12.00;;;6.60;99.90;;;;;;5041476;28;20406;-60
2023/04/27 06:03:08;;;;;;;28.17;12.80;;;10.00;99.90;;;;;;5037396;28;20052;-60
2023/04/27 06:05:36;;;;;;;31.48;12.10;;;6.70;99.90;;;;;;5040633;28;20315;-59
2023/04/27 06:08:03;;;;;;;27.25;11.63;;;6.80;99.90;;;;;;5032851;28;20072;-58
2023/04/27 06:10:31;;;;;;;28.83;11.38;;;6.90;99.90;;;;;;5050947;28;20041;-59
2023/04/27 06:12:59;;;;;;;33.15;12.23;;;6.90;99.90;;;;;;5040805;28;20046;-58
2023/04/27 06:15:26;;;;;;;32.45;12.85;;;6.90;99.90;;;;;;5046061;28;20037;-59
2023/04/27 06:17:54;;;;;;;30.90;12.90;;;7.00;99.90;;;;;;5043661;28;20067;-59
2023/04/27 06:20:22;;;;;;;25.33;11.95;;;;;;;;;;5028623;28;20037;-58
2023/04/27 06:22:50;;;;;;;25.70;11.98;;;7.00;99.90;;;;;;5027905;28;20069;-60
2023/04/27 06:25:17;;;;;;;29.05;13.80;;;7.10;99.90;;;;;;5024851;28;20044;-59
2023/04/27 06:27:46;;;;;;;26.52;12.00;;;7.10;99.90;;;;;;5048825;28;20045;-59
2023/04/27 06:30:13;;;;;;;29.88;12.57;;;7.20;99.90;;;;;;5037171;28;20650;-60
2023/04/27 06:32:41;;;;;;;25.55;11.18;;;7.30;99.90;;;;;;5033949;28;20045;-58
2023/04/27 06:35:09;;;;;;;27.38;11.07;;;7.30;99.90;;;;;;5037872;28;20037;-58
2023/04/27 06:37:37;;;;;;;27.80;11.68;;;7.40;99.90;;;;;;5049156;28;20068;-59
2023/04/27 06:40:06;;;;;;;26.70;12.27;;;7.40;99.90;;;;;;5045106;28;20041;-62
2023/04/27 06:42:35;;;;;;;23.37;10.67;;;7.50;99.90;;;;;;5037838;28;20447;-59
2023/04/27 06:45:04;;;;;;;23.45;10.80;;;7.60;99.90;;;;;;5033024;28;20053;-59
2023/04/27 06:47:32;;;;;;;26.58;12.07;;;7.60;99.90;;;;;;5044233;28;20405;-59
2023/04/27 06:49:59;;;;;;;26.02;11.20;;;7.60;99.90;;;;;;5030604;28;20409;-59
2023/04/27 06:52:27;;;;;;;25.83;12.20;;;7.60;99.90;;;;;;5035882;28;20068;-58
2023/04/27 06:54:54;;;;;;;31.63;11.35;;;7.50;99.90;;;;;;5042457;28;20052;-59
2023/04/27 06:57:22;;;;;;;27.88;11.10;;;7.60;99.90;;;;;;5049790;28;20084;-59
2023/04/27 06:59:50;;;;;;;25.42;11.95;;;7.60;99.90;;;;;;5034555;28;20493;-58
2023/04/27 07:02:18;;;;;;;26.42;11.73;;;7.60;99.90;;;;;;5030700;28;20053;-58
2023/04/27 07:04:46;;;;;;;27.20;10.63;;;7.60;99.90;;;;;;5042776;28;20485;-59
2023/04/27 07:07:14;;;;;;;27.58;11.13;;;7.60;99.90;;;;;;5047991;28;20059;-58
2023/04/27 07:09:41;;;;;;;32.92;12.05;;;7.70;99.90;;;;;;5048994;28;20044;-58
2023/04/27 07:12:09;;;;;;;24.00;9.93;;;7.70;99.90;;;;;;5047478;28;20045;-59
2023/04/27 07:14:37;;;;;;;22.38;10.15;;;7.80;99.90;;;;;;5027568;28;20409;-62
2023/04/27 07:17:04;;;;;;;21.20;10.57;;;7.90;99.90;;;;;;5041500;28;20071;-60
2023/04/27 07:19:32;;;;;;;25.10;11.45;;;8.00;99.90;;;;;;5032305;28;20061;-59
2023/04/27 07:22:00;;;;;;;26.48;11.68;;;8.10;99.90;;;;;;5032002;28;20052;-59
2023/04/27 07:24:30;;;;;;;30.50;11.18;;;8.20;99.90;;;;;;5046373;28;20049;-58
2023/04/27 07:26:58;;;;;;;21.40;10.70;;;8.30;99.90;;;;;;5049045;28;20053;-60
2023/04/27 07:29:27;;;;;;;21.17;9.68;;;8.40;99.90;;;;;;5045576;28;20049;-59
2023/04/27 07:31:55;;;;;;;24.47;11.17;;;8.60;99.90;;;;;;5038728;28;20053;-58
2023/04/27 07:34:23;;;;;;;24.33;10.82;;;8.60;99.90;;;;;;5039655;28;20049;-60
2023/04/27 07:36:54;;;;;;;27.80;11.18;;;8.70;99.90;;;;;;5011895;28;20050;-60
2023/04/27 07:39:22;;;;;;;24.02;11.25;;;8.80;99.90;;;;;;5046057;28;20404;-58
2023/04/27 07:41:50;;;;;;;22.83;11.63;;;8.90;99.90;;;;;;5049343;28;20056;-58
2023/04/27 07:44:18;;;;;;;26.88;10.48;;;9.00;99.90;;;;;;5040608;28;20536;-59
2023/04/27 07:46:47;;;;;;;23.50;10.25;;;9.10;99.90;;;;;;5042829;28;20045;-59
2023/04/27 07:49:15;;;;;;;23.50;10.05;;;9.10;99.90;;;;;;5042149;28;20904;-60
2023/04/27 07:51:43;;;;;;;22.15;9.93;;;9.10;99.90;;;;;;5045886;28;20049;-59
2023/04/27 07:54:11;;;;;;;25.70;11.45;;;9.10;99.90;;;;;;5043401;28;20072;-58
2023/04/27 07:56:42;;;;;;;23.48;11.00;;;9.10;99.90;;;;;;5021890;28;20397;-60
2023/04/27 07:59:10;;;;;;;22.88;11.45;;;9.20;99.90;;;;;;5034366;28;20053;-59
2023/04/27 08:01:38;;;;;;;24.50;11.88;;;9.20;99.90;;;;;;5039417;28;20044;-59
2023/04/27 08:04:06;;;;;;;25.85;11.82;;;9.20;99.90;;;;;;5025747;28;20049;-61
2023/04/27 08:06:34;;;;;;;24.85;11.70;;;9.30;99.90;;;;;;5049248;28;20048;-59
2023/04/27 08:09:03;;;;;;;25.07;12.50;;;9.30;99.90;;;;;;5044339;28;20045;-61
2023/04/27 08:11:31;;;;;;;24.02;10.30;;;9.30;99.90;;;;;;5043068;28;20044;-60
2023/04/27 08:13:59;;;;;;;24.08;10.25;;;9.40;99.90;;;;;;5043091;28;20049;-58
2023/04/27 08:16:26;;;;;;;24.65;12.07;;;9.50;99.90;;;;;;5031079;28;20049;-58
2023/04/27 08:18:54;;;;;;;30.17;10.18;;;9.40;99.90;;;;;;5044815;28;20047;-60
2023/04/27 08:21:23;;;;;;;23.33;11.13;;;9.50;99.90;;;;;;5030912;28;20167;-60
2023/04/27 08:23:51;;;;;;;20.25;10.77;;;9.60;99.90;;;;;;5044227;28;20048;-59
2023/04/27 08:26:19;;;;;;;22.77;10.43;;;9.70;99.90;;;;;;5018762;28;20045;-59
2023/04/27 08:28:56;;;;;;;18.65;10.48;;;9.70;99.90;;;;;;5047805;28;20068;-58
2023/04/27 08:31:24;;;;;;;25.30;11.25;;;9.80;99.90;;;;;;5047711;28;20041;-58
2023/04/27 08:33:52;;;;;;;19.27;10.20;;;9.80;99.90;;;;;;5045770;28;20060;-58
2023/04/27 08:36:25;;;;;;;26.13;10.63;;;9.80;99.90;;;;;;5043366;28;20045;-58
2023/04/27 08:38:53;;;;;;;22.50;10.07;;;9.90;99.90;;;;;;5037018;28;20053;-60
2023/04/27 08:41:22;;;;;;;25.58;11.18;;;9.90;99.90;;;;;;5046301;28;20045;-59
2023/04/27 08:43:52;;;;;;;26.17;10.67;;;9.80;99.90;;;;;;5012884;28;20388;-60
2023/04/27 08:46:21;;;;;;;18.27;9.77;;;9.80;99.90;;;;;;5045090;28;20041;-60
2023/04/27 08:48:50;;;;;;;22.92;10.15;;;9.80;99.90;;;;;;5029075;28;20053;-61
2023/04/27 08:51:19;;;;;;;20.30;9.88;;;9.90;99.90;;;;;;5028535;28;20045;-60
2023/04/27 08:53:55;;;;;;;22.08;10.02;;;9.90;99.90;;;;;;5044392;28;20068;-62
2023/04/27 08:56:26;;;;;;;19.52;10.02;;;10.00;99.90;;;;;;5048392;28;20060;-61
2023/04/27 08:58:56;;;;;;;23.45;11.13;;;9.90;99.90;;;;;;5036192;28;20396;-60
2023/04/27 09:01:26;;;;;;;27.77;11.05;;;9.90;99.90;;;;;;5034029;28;20048;-59
2023/04/27 09:03:59;;;;;;;20.73;10.40;;;9.90;99.90;;;;;;5036744;28;20083;-60
2023/04/27 09:06:34;;;;;;;21.55;10.02;;;10.00;99.90;;;;;;5025927;28;20053;-60
2023/04/27 09:09:03;;;;;;;27.30;11.70;;;10.00;99.90;;;;;;5024604;28;20065;-60
2023/04/27 09:11:33;;;;;;;23.42;10.07;;;10.00;99.90;;;;;;5040729;28;20040;-60
2023/04/27 09:14:16;;;;;;;23.50;10.52;;;10.10;99.90;;;;;;5046867;28;20551;-58
2023/04/27 09:16:44;;;;;;;25.40;10.95;;;10.00;99.90;;;;;;5028081;28;20305;-59
2023/04/27 09:19:23;;;;;;;22.95;10.45;;;10.00;99.90;;;;;;5040310;28;20093;-58
2023/04/27 09:22:02;;;;;;;27.58;10.50;;;10.00;99.90;;;;;;5007861;28;20541;-59
2023/04/27 09:24:30;;;;;;;21.30;11.17;;;9.90;99.90;;;;;;5016078;28;20064;-60
2023/04/27 09:26:57;;;;;;;28.17;11.30;;;9.90;99.90;;;;;;5046354;28;20500;-61
2023/04/27 09:29:35;;;;;;;26.17;11.35;;;9.90;99.90;;;;;;5017720;28;20420;-59
2023/04/27 09:32:23;;;;;;;23.13;9.60;;;9.90;99.90;;;;;;5044048;28;20053;-61
2023/04/27 09:34:51;;;;;;;27.25;10.45;;;10.00;99.90;;;;;;5024669;28;20048;-59
2023/04/27 09:37:20;;;;;;;21.00;10.90;;;9.90;99.90;;;;;;5009636;28;20436;-60
2023/04/27 09:39:48;;;;;;;26.58;11.27;;;10.00;99.90;;;;;;5027560;28;20041;-59
2023/04/27 09:42:16;;;;;;;27.05;11.00;;;10.00;99.90;;;;;;5039872;28;20052;-60
2023/04/27 09:44:44;;;;;;;24.67;10.43;;;10.00;99.90;;;;;;5043442;28;20064;-63
2023/04/27 09:47:13;;;;;;;29.25;11.43;;;10.00;99.90;;;;;;5047587;28;20124;-58
2023/04/27 09:49:41;;;;;;;31.92;11.23;;;10.00;99.90;;;;;;5045122;28;20056;-59
2023/04/27 09:52:09;;;;;;;24.88;11.68;;;10.10;99.90;;;;;;5031182;28;20064;-59
2023/04/27 09:54:38;;;;;;;28.85;12.02;;;10.10;99.90;;;;;;5045422;28;20041;-61
2023/04/27 09:57:34;;;;;;;29.05;11.98;;;10.10;99.90;;;;;;5037237;28;20049;-61
2023/04/27 10:00:19;;;;;;;24.73;9.93;;;10.10;99.90;;;;;;5046229;28;20512;-59
2023/04/27 10:03:15;;;;;;;32.15;12.95;;;10.10;99.90;;;;;;5038001;28;20457;-61
2023/04/27 10:06:20;;;;;;;27.65;12.55;;;10.10;99.90;;;;;;5018780;28;20068;-64
2023/04/27 10:08:50;;;;;;;30.48;11.65;;;10.20;99.90;;;;;;5040553;28;20060;-59
2023/04/27 10:11:18;;;;;;;19.88;11.00;;;10.20;99.90;;;;;;5032833;28;20042;-64
2023/04/27 10:13:55;;;;;;;22.02;10.20;;;10.20;99.90;;;;;;5048402;28;20037;-63
2023/04/27 10:16:22;;;;;;;20.95;10.60;;;10.20;99.90;;;;;;5046884;28;20049;-63
2023/04/27 10:18:54;;;;;;;18.90;10.02;;;10.30;99.90;;;;;;5041143;28;20045;-61
2023/04/27 10:21:25;;;;;;;27.13;10.48;;;10.30;99.90;;;;;;5033278;28;20053;-60
2023/04/27 10:23:53;;;;;;;20.75;9.43;;;10.30;99.90;;;;;;5033303;28;20045;-59
2023/04/27 10:26:26;;;;;;;22.48;9.70;;;10.30;99.90;;;;;;5038739;28;20042;-59
2023/04/27 10:29:15;;;;;;;24.63;9.65;;;10.30;99.90;;;;;;5043197;28;21337;-60
2023/04/27 10:31:46;;;;;;;24.85;10.23;;;10.40;99.90;;;;;;5042400;28;20600;-60
2023/04/27 10:34:17;;;;;;;24.95;10.65;;;10.40;99.90;;;;;;5050542;28;20049;-59
2023/04/27 10:36:48;;;;;;;22.90;9.60;;;10.40;99.90;;;;;;5046988;28;20049;-59
2023/04/27 10:39:32;;;;;;;18.80;9.48;;;10.50;99.90;;;;;;5050448;28;20049;-60
2023/04/27 10:42:27;;;;;;;20.33;9.38;;;10.50;99.90;;;;;;5050540;28;20037;-59
2023/04/27 10:44:58;;;;;;;25.42;9.82;;;10.50;99.90;;;;;;5033023;28;20520;-62
2023/04/27 10:47:37;;;;;;;20.73;9.00;;;10.50;99.90;;;;;;5043393;28;20034;-61
2023/04/27 10:50:06;;;;;;;19.98;9.02;;;10.50;99.90;;;;;;5030669;28;20057;-59
2023/04/27 10:52:34;;;;;;;20.77;9.95;;;10.50;99.90;;;;;;5031536;28;20052;-59
2023/04/27 10:55:21;;;;;;;23.55;9.52;;;10.40;99.90;;;;;;5044117;28;20492;-59
2023/04/27 10:57:54;;;;;;;19.42;8.90;;;10.40;99.90;;;;;;5047411;28;20041;-59
2023/04/27 11:00:27;;;;;;;19.77;8.57;;;10.40;99.90;;;;;;5016452;28;20056;-60
2023/04/27 11:03:08;;;;;;;20.35;9.02;;;10.40;99.90;;;;;;5043976;28;20045;-59
2023/04/27 11:05:36;;;;;;;17.35;8.48;;;10.40;99.90;;;;;;5040777;28;20096;-61
2023/04/27 11:08:08;;;;;;;17.85;8.20;;;10.50;99.90;;;;;;5033969;28;20057;-58
2023/04/27 11:10:48;;;;;;;24.75;9.25;;;11.60;99.90;;;;;;5026966;28;20042;-61
2023/04/27 11:13:25;;;;;;;23.13;9.70;;;10.60;99.90;;;;;;5041689;28;20052;-62
2023/04/27 11:15:54;;;;;;;18.48;8.30;;;10.60;99.90;;;;;;5040563;28;20052;-63
2023/04/27 11:18:30;;;;;;;17.17;8.87;;;10.60;99.90;;;;;;5040281;28;20064;-59
2023/04/27 11:21:09;;;;;;;19.80;9.52;;;10.60;99.90;;;;;;5038208;28;20283;-60
2023/04/27 11:23:38;;;;;;;19.07;8.97;;;10.60;99.90;;;;;;5035067;28;20079;-61
2023/04/27 11:26:09;;;;;;;17.83;8.65;;;10.60;99.90;;;;;;5041393;28;20045;-60
2023/04/27 11:28:38;;;;;;;22.27;8.73;;;10.70;99.90;;;;;;5031835;28;20072;-59
2023/04/27 11:31:06;;;;;;;18.38;8.45;;;10.70;99.90;;;;;;5034248;28;20037;-58
2023/04/27 11:33:34;;;;;;;18.88;7.65;;;10.80;99.90;;;;;;5036977;28;20048;-59
2023/04/27 11:36:02;;;;;;;19.27;8.68;;;10.90;99.90;;;;;;5036380;28;20041;-60
2023/04/27 11:38:33;;;;;;;16.70;7.75;;;10.90;99.90;;;;;;5019645;28;20052;-59
2023/04/27 11:41:06;;;;;;;21.38;9.20;;;10.90;99.90;;;;;;5029154;28;20040;-59
2023/04/27 11:43:36;;;;;;;19.10;9.10;;;10.90;99.90;;;;;;5043129;28;20057;-59
2023/04/27 11:46:05;;;;;;;19.67;8.38;;;11.00;99.90;;;;;;5022292;28;20413;-59
2023/04/27 11:48:36;;;;;;;19.73;9.75;;;11.00;99.90;;;;;;5034442;28;20416;-60
2023/04/27 11:51:10;;;;;;;20.85;8.75;;;11.00;99.90;;;;;;5008139;28;20061;-59
2023/04/27 11:53:38;;;;;;;17.10;8.20;;;11.00;99.90;;;;;;5047439;28;20052;-59
2023/04/27 11:56:09;;;;;;;20.63;8.20;;;10.90;99.90;;;;;;5059536;28;20048;-59
2023/04/27 11:58:38;;;;;;;20.98;8.93;;;11.00;99.90;;;;;;5058122;28;20485;-58
2023/04/27 12:01:07;;;;;;;19.38;9.02;;;10.90;99.90;;;;;;5051848;28;20366;-60
2023/04/27 12:03:35;;;;;;;18.97;9.20;;;10.90;99.90;;;;;;5059315;28;20187;-60
2023/04/27 12:06:06;;;;;;;21.05;8.70;;;10.90;99.90;;;;;;5053542;28;20749;-58
2023/04/27 12:08:56;;;;;;;17.20;7.88;;;10.80;99.90;;;;;;5054956;28;20041;-59
2023/04/27 12:11:26;;;;;;;15.18;8.27;;;10.80;99.90;;;;;;5052775;28;20522;-59
2023/04/27 12:13:55;;;;;;;22.67;9.68;;;10.90;99.90;;;;;;5053149;28;20543;-60
2023/04/27 12:16:23;;;;;;;17.77;8.80;;;10.90;99.90;;;;;;5044312;28;20062;-59
2023/04/27 12:18:52;;;;;;;28.08;9.02;;;10.90;99.90;;;;;;5057327;28;20538;-59
2023/04/27 12:21:20;;;;;;;24.65;9.40;;;11.00;99.90;;;;;;5049873;28;20053;-59
2023/04/27 12:23:50;;;;;;;20.25;9.55;;;11.00;99.90;;;;;;5057312;28;20051;-59
2023/04/27 12:26:19;;;;;;;16.52;8.98;;;11.00;99.90;;;;;;5067841;28;20416;-59
2023/04/27 12:28:46;;;;;;;21.20;8.88;;;12.40;99.90;;;;;;5056783;28;20048;-60
2023/04/27 12:31:17;;;;;;;18.73;9.10;;;11.10;99.90;;;;;;5060253;28;20045;-60
2023/04/27 12:33:45;;;;;;;22.13;10.00;;;11.10;99.90;;;;;;5063159;28;20155;-60
2023/04/27 12:36:13;;;;;;;23.70;11.07;;;11.10;99.90;;;;;;5062386;28;20067;-62
2023/04/27 12:38:41;;;;;;;21.33;10.40;;;11.10;99.90;;;;;;5048312;28;20492;-63
2023/04/27 12:41:09;;;;;;;24.13;9.52;;;11.10;99.90;;;;;;5059989;28;20051;-64
2023/04/27 12:43:37;;;;;;;25.35;11.32;;;11.20;99.90;;;;;;5060668;28;20045;-64
2023/04/27 12:46:04;;;;;;;18.15;8.98;;;11.30;99.90;;;;;;5065180;28;20056;-60
2023/04/27 12:48:32;;;;;;;19.27;9.32;;;11.30;99.90;;;;;;5047160;28;20044;-63
2023/04/27 12:51:00;;;;;;;18.05;9.07;;;11.40;99.90;;;;;;5056420;28;20048;-63
2023/04/27 12:53:28;;;;;;;22.90;9.23;;;11.50;99.90;;;;;;5034033;28;20055;-61